Time;durP1;ratioP1;P1;durP2;ratioP2;P2;SDS_P1;SDS_P2;PMS_P1;PMS_P2;Temp;Humidity;BMP_temperature;BMP_pressure;BME280_temperature;BME280_humidity;BME280_pressure;Samples;Min_cycle;Max_cycle;Signal;HPM_P1;HPM_P2
2021/07/07 00:01:11;;;;;;;0.30;0.30;;;15.30;99.90;;;;;;5055883;28;20561;-91
2021/07/07 00:03:37;;;;;;;0.20;0.20;;;15.20;99.90;;;;;;5068270;28;20024;-90
2021/07/07 00:06:03;;;;;;;0.00;0.00;;;15.10;99.90;;;;;;5059322;28;20028;-87
2021/07/07 00:08:29;;;;;;;0.23;0.23;;;15.10;99.90;;;;;;5063816;28;20033;-90
2021/07/07 00:10:55;;;;;;;0.10;0.10;;;15.10;99.90;;;;;;5051811;28;20052;-90
2021/07/07 00:13:21;;;;;;;0.07;0.07;;;15.10;99.90;;;;;;5049973;28;20025;-90
2021/07/07 00:15:47;;;;;;;12.63;0.30;;;15.00;99.90;;;;;;5066010;28;20059;-90
2021/07/07 00:18:14;;;;;;;0.43;0.40;;;15.00;99.90;;;;;;5064594;28;20053;-90
2021/07/07 00:20:44;;;;;;;;;;;14.90;99.90;;;;;;5050561;28;20033;-90
2021/07/07 00:23:11;;;;;;;0.57;0.57;;;14.90;99.90;;;;;;5049102;28;19909;-90
2021/07/07 00:25:37;;;;;;;0.13;0.13;;;15.00;99.90;;;;;;5060914;28;20082;-90
2021/07/07 00:28:04;;;;;;;0.05;0.05;;;14.90;99.90;;;;;;5059179;28;20032;-90
2021/07/07 00:30:30;;;;;;;0.00;0.00;;;14.80;99.90;;;;;;5050135;28;20048;-90
2021/07/07 00:32:56;;;;;;;0.00;0.00;;;14.80;99.90;;;;;;5067878;28;20025;-90
2021/07/07 00:35:23;;;;;;;0.00;0.00;;;14.70;99.90;;;;;;5056100;28;20263;-90
2021/07/07 00:37:48;;;;;;;0.00;0.00;;;14.80;99.90;;;;;;5050006;28;20055;-90
2021/07/07 00:40:14;;;;;;;0.00;0.00;;;14.80;99.90;;;;;;5050736;28;20037;-90
2021/07/07 00:42:40;;;;;;;0.08;0.08;;;14.90;99.90;;;;;;5064042;28;20540;-90
2021/07/07 00:45:07;;;;;;;0.60;0.60;;;14.80;99.90;;;;;;5062840;28;20033;-90
2021/07/07 00:47:32;;;;;;;0.28;0.28;;;14.90;99.90;;;;;;5066667;28;20566;-90
2021/07/07 00:49:58;;;;;;;0.00;0.00;;;14.80;99.90;;;;;;5063344;28;20025;-90
2021/07/07 00:52:24;;;;;;;1.83;1.30;;;14.80;99.90;;;;;;5067457;28;20020;-90
2021/07/07 00:54:50;;;;;;;0.00;0.00;;;14.70;99.90;;;;;;5066100;28;20703;-90
2021/07/07 00:57:17;;;;;;;0.10;0.10;;;14.60;99.90;;;;;;5049976;28;20013;-90
2021/07/07 00:59:46;;;;;;;;;;;14.60;99.90;;;;;;5050421;28;20050;-90
2021/07/07 01:02:16;;;;;;;0.13;0.13;;;14.60;99.90;;;;;;5052625;28;19948;-90
2021/07/07 01:04:41;;;;;;;0.10;0.10;;;14.70;99.90;;;;;;5061074;28;20076;-91
2021/07/07 01:07:07;;;;;;;0.07;0.07;;;14.70;99.90;;;;;;5049990;28;20043;-91
2021/07/07 01:09:33;;;;;;;0.20;0.20;;;14.60;99.90;;;;;;5049132;28;20025;-91
2021/07/07 01:11:59;;;;;;;0.00;0.00;;;14.40;99.90;;;;;;5057775;28;20021;-91
2021/07/07 01:14:25;;;;;;;0.10;0.10;;;14.40;99.90;;;;;;5051150;28;20021;-91
2021/07/07 01:16:52;;;;;;;0.10;0.10;;;14.40;99.90;;;;;;5048040;28;20025;-91
2021/07/07 01:19:18;;;;;;;0.10;0.10;;;14.30;99.90;;;;;;5049609;28;20768;-91
2021/07/07 01:21:46;;;;;;;0.10;0.10;;;14.30;99.90;;;;;;5053085;28;20031;-90
2021/07/07 01:24:13;;;;;;;0.10;0.10;;;14.20;99.90;;;;;;5049589;28;20029;-89
2021/07/07 01:26:39;;;;;;;0.20;0.20;;;14.20;99.90;;;;;;5049173;28;20091;-87
2021/07/07 01:29:05;;;;;;;0.17;0.17;;;14.20;99.90;;;;;;5063867;28;20402;-90
2021/07/07 01:31:31;;;;;;;0.03;0.03;;;14.20;99.90;;;;;;5069115;28;20016;-89
2021/07/07 01:33:56;;;;;;;0.10;0.10;;;14.20;99.90;;;;;;5048607;28;20028;-89
2021/07/07 01:36:22;;;;;;;0.07;0.07;;;14.20;99.90;;;;;;5051782;28;20017;-89
2021/07/07 01:38:48;;;;;;;0.10;0.10;;;14.20;99.90;;;;;;5055177;28;20060;-89
2021/07/07 01:41:14;;;;;;;0.30;0.30;;;14.10;99.90;;;;;;5058599;28;20029;-89
2021/07/07 01:43:40;;;;;;;0.00;0.00;;;14.10;99.90;;;;;;5059469;28;20045;-89
2021/07/07 01:46:06;;;;;;;0.10;0.10;;;14.00;99.90;;;;;;5048613;28;20028;-89
2021/07/07 01:48:31;;;;;;;0.20;0.20;;;14.10;99.90;;;;;;5054563;28;20096;-90
2021/07/07 01:50:57;;;;;;;0.10;0.10;;;14.20;99.90;;;;;;5068372;28;20070;-90
2021/07/07 01:53:23;;;;;;;0.10;0.10;;;14.20;99.90;;;;;;5067416;28;20095;-90
2021/07/07 01:55:49;;;;;;;0.10;0.10;;;14.30;99.90;;;;;;5064529;28;20039;-90
2021/07/07 01:58:15;;;;;;;0.10;0.10;;;14.40;99.90;;;;;;5048588;28;20061;-90
2021/07/07 02:00:40;;;;;;;0.00;0.00;;;14.50;99.90;;;;;;5052159;28;20044;-90
2021/07/07 02:03:06;;;;;;;0.10;0.10;;;14.50;99.90;;;;;;5046731;28;20067;-89
2021/07/07 02:05:36;;;;;;;0.10;0.10;;;14.50;99.90;;;;;;5063129;28;20027;-89
2021/07/07 02:08:05;;;;;;;0.57;0.40;;;14.60;99.90;;;;;;5048311;28;20048;-90
2021/07/07 02:10:31;;;;;;;0.00;0.00;;;14.70;99.90;;;;;;5056589;28;20042;-90
2021/07/07 02:12:56;;;;;;;0.00;0.00;;;14.70;99.90;;;;;;5063598;28;20025;-90
2021/07/07 02:15:25;;;;;;;0.00;0.00;;;14.80;99.90;;;;;;5058285;28;20052;-90
2021/07/07 02:17:53;;;;;;;0.10;0.10;;;14.70;99.90;;;;;;5066729;28;20119;-89
2021/07/07 02:20:19;;;;;;;0.15;0.15;;;14.60;99.90;;;;;;5067651;28;20051;-90
2021/07/07 02:22:46;;;;;;;0.43;0.32;;;14.50;99.90;;;;;;5068481;28;20086;-89
2021/07/07 02:25:14;;;;;;;;;;;14.60;99.90;;;;;;5061108;28;20036;-89
2021/07/07 02:27:39;;;;;;;0.10;0.10;;;14.60;99.90;;;;;;5048512;28;19908;-90
2021/07/07 02:30:12;;;;;;;0.50;0.50;;;14.70;99.90;;;;;;5051883;28;20135;-90
2021/07/07 02:32:37;;;;;;;0.20;0.20;;;14.60;99.90;;;;;;5063907;28;20025;-90
2021/07/07 02:35:06;;;;;;;0.10;0.10;;;14.70;99.90;;;;;;5067119;28;20025;-90
2021/07/07 02:37:32;;;;;;;0.00;0.00;;;14.70;99.90;;;;;;5053972;28;20505;-90
2021/07/07 02:39:58;;;;;;;0.00;0.00;;;14.70;99.90;;;;;;5048181;28;20032;-91
2021/07/07 02:42:24;;;;;;;0.10;0.10;;;14.80;99.90;;;;;;5049139;28;20045;-91
2021/07/07 02:44:50;;;;;;;0.10;0.10;;;14.80;99.90;;;;;;5064878;28;20421;-90
2021/07/07 02:47:15;;;;;;;3.57;1.03;;;14.80;99.90;;;;;;5066785;28;20410;-90
2021/07/07 02:49:41;;;;;;;0.00;0.00;;;14.80;99.90;;;;;;5064229;28;20085;-90
2021/07/07 02:52:07;;;;;;;0.20;0.20;;;14.70;99.90;;;;;;5049561;28;20029;-90
2021/07/07 02:54:33;;;;;;;0.10;0.10;;;14.70;99.90;;;;;;5047939;28;20513;-90
2021/07/07 02:56:58;;;;;;;0.57;0.57;;;14.70;99.90;;;;;;5064696;28;20078;-90
2021/07/07 02:59:24;;;;;;;0.10;0.10;;;14.60;99.90;;;;;;5051075;28;20084;-90
2021/07/07 03:01:50;;;;;;;0.00;0.00;;;14.50;99.90;;;;;;5071562;28;20028;-91
2021/07/07 03:04:16;;;;;;;0.40;0.40;;;14.40;99.90;;;;;;5070901;28;20406;-91
2021/07/07 03:06:41;;;;;;;0.20;0.20;;;14.40;99.90;;;;;;5050499;28;20116;-89
2021/07/07 03:09:07;;;;;;;0.10;0.10;;;14.40;99.90;;;;;;5053166;28;20032;-89
2021/07/07 03:11:35;;;;;;;0.00;0.00;;;14.40;99.90;;;;;;5051823;28;20021;-89
2021/07/07 03:14:01;;;;;;;0.03;0.03;;;14.40;99.90;;;;;;5052134;28;20490;-89
2021/07/07 03:16:26;;;;;;;0.00;0.00;;;14.20;99.90;;;;;;5051803;28;20031;-89
2021/07/07 03:18:52;;;;;;;2.90;0.40;;;14.00;99.90;;;;;;5053250;28;20056;-89
2021/07/07 03:21:18;;;;;;;0.30;0.30;;;14.10;99.90;;;;;;5071268;28;20398;-89
2021/07/07 03:23:44;;;;;;;9.07;0.40;;;14.20;99.90;;;;;;5071778;28;20025;-89
2021/07/07 03:26:10;;;;;;;0.00;0.00;;;14.40;99.90;;;;;;5070251;28;20036;-90
2021/07/07 03:28:35;;;;;;;0.10;0.10;;;14.40;99.90;;;;;;5054082;28;20025;-89
2021/07/07 03:31:01;;;;;;;0.00;0.00;;;14.40;99.90;;;;;;5064902;28;20032;-89
2021/07/07 03:33:27;;;;;;;0.20;0.20;;;14.50;99.90;;;;;;5055604;28;20021;-89
2021/07/07 03:35:53;;;;;;;0.00;0.00;;;14.60;99.90;;;;;;5057321;28;20107;-89
2021/07/07 03:38:18;;;;;;;0.00;0.00;;;14.60;99.90;;;;;;5071642;28;20025;-89
2021/07/07 03:40:44;;;;;;;0.30;0.17;;;14.70;99.90;;;;;;5060587;28;20029;-89
2021/07/07 03:43:11;;;;;;;0.10;0.10;;;14.70;99.90;;;;;;5066511;28;20455;-89
2021/07/07 03:45:36;;;;;;;0.10;0.10;;;14.70;99.90;;;;;;5052879;28;20039;-89
2021/07/07 03:48:03;;;;;;;0.03;0.03;;;14.70;99.90;;;;;;5062184;28;20637;-89
2021/07/07 03:50:29;;;;;;;;;;;14.50;99.90;;;;;;5057246;28;20123;-90
2021/07/07 03:52:55;;;;;;;0.00;0.00;;;14.60;99.90;;;;;;5066574;28;20012;-90
2021/07/07 03:55:23;;;;;;;0.10;0.10;;;14.60;99.90;;;;;;5057897;28;20163;-90
2021/07/07 03:57:50;;;;;;;0.10;0.10;;;14.50;99.90;;;;;;5051488;28;20354;-89
2021/07/07 04:00:23;;;;;;;0.00;0.00;;;14.50;99.90;;;;;;5051577;28;20029;-89
2021/07/07 04:02:49;;;;;;;0.17;0.17;;;14.60;99.90;;;;;;5070361;28;20675;-89
2021/07/07 04:05:15;;;;;;;0.22;0.22;;;14.60;99.90;;;;;;5059267;28;20036;-89
2021/07/07 04:07:42;;;;;;;0.30;0.30;;;14.70;99.90;;;;;;5063977;28;20044;-89
2021/07/07 04:10:09;;;;;;;0.10;0.10;;;14.70;99.90;;;;;;5071075;28;20028;-89
2021/07/07 04:12:36;;;;;;;0.10;0.10;;;14.70;99.90;;;;;;5070560;28;20066;-89
2021/07/07 04:15:06;;;;;;;0.00;0.00;;;14.70;99.90;;;;;;5062542;28;20409;-89
2021/07/07 04:17:33;;;;;;;0.00;0.00;;;14.70;99.90;;;;;;5055644;28;20028;-90
2021/07/07 04:19:58;;;;;;;0.00;0.00;;;14.70;99.90;;;;;;5057271;28;20516;-90
2021/07/07 04:22:24;;;;;;;1.07;0.97;;;14.70;99.90;;;;;;5066134;28;20128;-90
2021/07/07 04:24:50;;;;;;;0.63;0.63;;;14.60;99.90;;;;;;5059386;28;20029;-90
2021/07/07 04:27:16;;;;;;;1.87;0.67;;;14.40;99.90;;;;;;5064315;28;20032;-90
2021/07/07 04:29:42;;;;;;;0.00;0.00;;;14.40;99.90;;;;;;5069983;28;20417;-90
2021/07/07 04:32:08;;;;;;;0.33;0.33;;;14.40;99.90;;;;;;5069228;28;20073;-89
2021/07/07 04:34:34;;;;;;;0.88;0.55;;;14.50;99.90;;;;;;5065081;28;20024;-89
2021/07/07 04:37:01;;;;;;;0.00;0.00;;;14.60;99.90;;;;;;5070675;28;20038;-90
2021/07/07 04:39:27;;;;;;;0.20;0.10;;;14.60;99.90;;;;;;5068983;28;20032;-89
2021/07/07 04:41:53;;;;;;;0.00;0.00;;;14.70;99.90;;;;;;5048952;28;20037;-92
2021/07/07 04:44:19;;;;;;;0.10;0.10;;;14.80;99.90;;;;;;5050909;28;20047;-92
2021/07/07 04:46:45;;;;;;;0.00;0.00;;;14.70;99.90;;;;;;5054643;28;20511;-90
2021/07/07 04:49:11;;;;;;;0.00;0.00;;;14.80;99.90;;;;;;5066334;28;21484;-90
2021/07/07 04:51:36;;;;;;;0.27;0.27;;;14.90;99.90;;;;;;5068163;28;20040;-91
2021/07/07 04:54:03;;;;;;;0.10;0.10;;;14.90;99.90;;;;;;5062473;28;20027;-89
2021/07/07 04:56:28;;;;;;;0.10;0.10;;;14.90;99.90;;;;;;5065250;28;20800;-91
2021/07/07 04:58:54;;;;;;;0.00;0.00;;;14.90;99.90;;;;;;5048894;28;20029;-91
2021/07/07 05:01:21;;;;;;;0.40;0.40;;;14.90;99.90;;;;;;5052849;28;20166;-86
2021/07/07 05:03:47;;;;;;;0.10;0.10;;;14.80;99.90;;;;;;5061828;28;20498;-87
2021/07/07 05:06:13;;;;;;;0.07;0.07;;;14.70;99.90;;;;;;5059497;28;20033;-90
2021/07/07 05:08:38;;;;;;;0.10;0.10;;;14.50;99.90;;;;;;5060211;28;20079;-89
2021/07/07 05:11:04;;;;;;;0.60;0.40;;;14.30;99.90;;;;;;5057222;28;20040;-87
2021/07/07 05:13:31;;;;;;;0.03;0.03;;;14.30;99.90;;;;;;5059639;28;20095;-90
2021/07/07 05:15:57;;;;;;;0.30;0.25;;;14.70;99.90;;;;;;5064964;28;20025;-88
2021/07/07 05:18:22;;;;;;;0.10;0.10;;;14.60;99.90;;;;;;5062211;28;20546;-90
2021/07/07 05:20:48;;;;;;;0.70;0.63;;;14.50;99.90;;;;;;5059301;28;20040;-89
2021/07/07 05:23:15;;;;;;;0.10;0.10;;;14.70;99.90;;;;;;5058089;28;20055;-90
2021/07/07 05:25:41;;;;;;;0.45;0.38;;;14.90;99.90;;;;;;5068507;28;20051;-88
2021/07/07 05:28:07;;;;;;;0.00;0.00;;;15.00;99.90;;;;;;5064718;28;20460;-88
2021/07/07 05:30:34;;;;;;;13.23;0.32;;;15.10;99.90;;;;;;5050482;28;20106;-87
2021/07/07 05:33:01;;;;;;;0.00;0.00;;;15.40;99.90;;;;;;5058204;28;20032;-88
2021/07/07 05:35:27;;;;;;;0.10;0.10;;;15.40;99.90;;;;;;5049342;28;20143;-87
2021/07/07 05:37:53;;;;;;;0.20;0.20;;;15.70;99.90;;;;;;5052429;28;20028;-87
2021/07/07 05:40:20;;;;;;;0.00;0.00;;;15.70;99.90;;;;;;5049185;28;20614;-88
2021/07/07 05:42:52;;;;;;;0.03;0.03;;;15.90;99.90;;;;;;5058439;28;20097;-87
2021/07/07 05:45:19;;;;;;;1.17;0.20;;;15.90;99.90;;;;;;5054485;28;20037;-86
2021/07/07 05:47:45;;;;;;;0.00;0.00;;;15.90;99.90;;;;;;5049617;28;20417;-90
2021/07/07 05:50:11;;;;;;;0.00;0.00;;;16.00;99.90;;;;;;5058865;28;20067;-89
2021/07/07 05:52:36;;;;;;;0.00;0.00;;;16.10;99.90;;;;;;5060654;28;20484;-91
2021/07/07 05:55:03;;;;;;;0.00;0.00;;;15.90;99.90;;;;;;5060104;28;20561;-89
2021/07/07 05:57:37;;;;;;;0.25;0.10;;;15.90;99.90;;;;;;5048966;28;20051;-89
2021/07/07 06:00:07;;;;;;;0.10;0.10;;;15.90;99.90;;;;;;5057189;28;20016;-89
2021/07/07 06:02:33;;;;;;;0.20;0.20;;;16.00;99.90;;;;;;5068488;28;20032;-90
2021/07/07 06:04:59;;;;;;;0.00;0.00;;;16.10;99.90;;;;;;5067046;28;20035;-89
2021/07/07 06:07:25;;;;;;;0.10;0.10;;;16.20;99.90;;;;;;5047769;28;20025;-89
2021/07/07 06:09:50;;;;;;;0.10;0.10;;;16.00;99.90;;;;;;5049122;28;20029;-90
2021/07/07 06:12:16;;;;;;;0.10;0.10;;;16.50;99.90;;;;;;5049243;28;20514;-90
2021/07/07 06:14:42;;;;;;;0.00;0.00;;;16.20;99.90;;;;;;5053981;28;20020;-90
2021/07/07 06:17:08;;;;;;;0.13;0.13;;;16.60;99.90;;;;;;5068147;28;20018;-90
2021/07/07 06:19:34;;;;;;;0.00;0.00;;;17.00;99.90;;;;;;5069730;28;20664;-90
2021/07/07 06:22:01;;;;;;;0.00;0.00;;;19.60;99.90;;;;;;5062186;28;20044;-88
2021/07/07 06:24:28;;;;;;;0.55;0.55;;;21.20;99.90;;;;;;5057292;28;20036;-88
2021/07/07 06:26:54;;;;;;;0.15;0.15;;;19.50;99.90;;;;;;5068103;28;20546;-90
2021/07/07 06:29:20;;;;;;;0.00;0.00;;;20.90;99.90;;;;;;5049744;28;20116;-89
2021/07/07 06:31:46;;;;;;;0.00;0.00;;;18.60;99.90;;;;;;5056973;28;20028;-88
2021/07/07 06:34:12;;;;;;;0.00;0.00;;;19.00;99.90;;;;;;5069718;28;20516;-87
2021/07/07 06:36:38;;;;;;;0.07;0.03;;;18.60;99.90;;;;;;5069158;28;20025;-86
2021/07/07 06:39:04;;;;;;;;;;;18.50;99.90;;;;;;5071570;28;20449;-87
2021/07/07 06:41:31;;;;;;;0.00;0.00;;;19.40;99.90;;;;;;5062843;28;19909;-87
2021/07/07 06:43:58;;;;;;;0.80;0.45;;;18.90;99.90;;;;;;5062979;28;20511;-87
2021/07/07 06:46:24;;;;;;;3.05;0.90;;;18.40;99.90;;;;;;5056027;28;20033;-87
2021/07/07 06:48:49;;;;;;;0.00;0.00;;;18.60;99.90;;;;;;5055002;28;20047;-86
2021/07/07 06:51:15;;;;;;;0.87;0.10;;;19.10;99.90;;;;;;5052255;28;20103;-86
2021/07/07 06:53:41;;;;;;;0.20;0.20;;;19.10;99.90;;;;;;5066423;28;20040;-86
2021/07/07 06:56:07;;;;;;;0.00;0.00;;;18.60;99.90;;;;;;5071524;28;20325;-85
2021/07/07 06:58:33;;;;;;;0.10;0.10;;;18.80;99.90;;;;;;5071868;28;20086;-86
2021/07/07 07:00:59;;;;;;;0.00;0.00;;;18.70;99.90;;;;;;5071578;28;20759;-87
2021/07/07 07:03:24;;;;;;;0.00;0.00;;;18.50;99.90;;;;;;5060513;28;20162;-87
2021/07/07 07:05:50;;;;;;;0.73;0.23;;;18.90;99.90;;;;;;5066350;28;20021;-86
2021/07/07 07:08:18;;;;;;;0.00;0.00;;;19.00;99.90;;;;;;5064539;28;20021;-86
2021/07/07 07:10:44;;;;;;;0.00;0.00;;;19.00;99.90;;;;;;5058208;28;20306;-86
2021/07/07 07:13:13;;;;;;;0.25;0.10;;;19.50;99.90;;;;;;5063633;28;20551;-87
2021/07/07 07:15:38;;;;;;;0.08;0.08;;;20.20;99.90;;;;;;5052148;28;20075;-87
2021/07/07 07:18:04;;;;;;;0.10;0.10;;;20.40;99.90;;;;;;5053776;28;20028;-85
2021/07/07 07:20:30;;;;;;;0.00;0.00;;;20.60;99.90;;;;;;5060528;28;20370;-87
2021/07/07 07:23:00;;;;;;;0.00;0.00;;;21.00;99.90;;;;;;5051219;28;20056;-87
2021/07/07 07:25:27;;;;;;;0.00;0.00;;;20.50;99.90;;;;;;5051457;28;20029;-87
2021/07/07 07:27:54;;;;;;;0.68;0.55;;;20.90;99.90;;;;;;5051512;28;20032;-87
2021/07/07 07:30:20;;;;;;;0.00;0.00;;;21.10;99.90;;;;;;5049935;28;20441;-87
2021/07/07 07:32:47;;;;;;;;;;;23.10;99.90;;;;;;5051721;28;20482;-87
2021/07/07 07:35:13;;;;;;;;;;;23.10;99.90;;;;;;5052061;28;19999;-87
2021/07/07 07:37:53;;;;;;;0.17;0.10;;;22.30;99.90;;;;;;5050923;28;20496;-87
2021/07/07 07:40:24;;;;;;;0.15;0.15;;;21.70;99.90;;;;;;5049933;28;20577;-87
2021/07/07 07:42:51;;;;;;;0.93;0.93;;;21.30;99.90;;;;;;5049815;28;20102;-85
2021/07/07 07:45:16;;;;;;;;;;;21.60;99.90;;;;;;5051911;28;20067;-85
2021/07/07 07:47:43;;;;;;;0.32;0.30;;;21.50;99.90;;;;;;5051050;28;19905;-85
2021/07/07 07:50:12;;;;;;;0.15;0.13;;;25.80;99.90;;;;;;5049974;28;20043;-86
2021/07/07 07:52:40;;;;;;;0.00;0.00;;;30.40;99.90;;;;;;5050705;28;20482;-85
2021/07/07 07:55:07;;;;;;;0.20;0.20;;;29.80;97.40;;;;;;5049787;28;20451;-86
2021/07/07 07:57:36;;;;;;;0.10;0.10;;;29.80;95.50;;;;;;5050920;28;20017;-85
2021/07/07 08:00:13;;;;;;;0.20;0.20;;;31.30;94.10;;;;;;5050967;28;20029;-86
2021/07/07 08:02:39;;;;;;;0.10;0.10;;;32.00;91.10;;;;;;5049571;28;20691;-86
2021/07/07 08:05:05;;;;;;;;;;;31.80;89.60;;;;;;5050117;28;20033;-86
2021/07/07 08:07:32;;;;;;;0.52;0.40;;;32.60;86.60;;;;;;5050683;28;19904;-86
2021/07/07 08:09:58;;;;;;;0.25;0.25;;;31.70;83.30;;;;;;5050521;28;20490;-86
2021/07/07 08:12:25;;;;;;;0.00;0.00;;;30.80;82.30;;;;;;5050700;28;20061;-86
2021/07/07 08:14:51;;;;;;;0.20;0.20;;;29.90;82.50;;;;;;5050798;28;20052;-85
2021/07/07 08:17:19;;;;;;;0.10;0.10;;;28.60;86.40;;;;;;5050469;28;20406;-85
2021/07/07 08:19:46;;;;;;;0.00;0.00;;;26.60;94.40;;;;;;5048912;28;20036;-85
2021/07/07 08:22:11;;;;;;;0.00;0.00;;;26.80;87.80;;;;;;5052562;28;20039;-86
2021/07/07 08:24:37;;;;;;;0.03;0.03;;;26.20;88.40;;;;;;5069198;28;20115;-85
2021/07/07 08:27:04;;;;;;;0.00;0.00;;;26.10;89.70;;;;;;5068777;28;20036;-85
2021/07/07 08:29:29;;;;;;;;;;;25.70;88.40;;;;;;5069267;28;20408;-87
2021/07/07 08:31:55;;;;;;;0.68;0.28;;;25.90;87.80;;;;;;5068565;28;19991;-87
2021/07/07 08:34:21;;;;;;;0.55;0.40;;;26.30;90.60;;;;;;5070170;28;20024;-86
2021/07/07 08:36:47;;;;;;;0.00;0.00;;;26.90;83.10;;;;;;5069515;28;20035;-87
2021/07/07 08:39:13;;;;;;;0.00;0.00;;;27.20;82.80;;;;;;5068770;28;20024;-86
2021/07/07 08:41:40;;;;;;;0.22;0.13;;;27.40;80.70;;;;;;5067909;28;20102;-84
2021/07/07 08:44:07;;;;;;;0.30;0.22;;;25.90;87.90;;;;;;5069715;28;20051;-85
2021/07/07 08:46:36;;;;;;;0.00;0.00;;;24.90;87.80;;;;;;5069482;28;20024;-85
2021/07/07 08:49:04;;;;;;;0.00;0.00;;;26.10;85.40;;;;;;5069647;28;20508;-85
2021/07/07 08:51:30;;;;;;;0.00;0.00;;;26.40;85.20;;;;;;5068093;28;20085;-84
2021/07/07 08:53:57;;;;;;;;;;;27.00;85.50;;;;;;5069331;28;20437;-85
2021/07/07 08:56:22;;;;;;;0.20;0.20;;;26.70;88.30;;;;;;5069603;28;19999;-85
2021/07/07 08:58:50;;;;;;;0.25;0.25;;;29.80;81.30;;;;;;5069385;28;20116;-85
2021/07/07 09:01:16;;;;;;;0.25;0.25;;;32.10;71.50;;;;;;5069439;28;20025;-85
2021/07/07 09:03:43;;;;;;;0.20;0.20;;;30.50;72.40;;;;;;5069158;28;20062;-85
2021/07/07 09:06:11;;;;;;;0.25;0.25;;;29.30;75.10;;;;;;5069401;28;20075;-85
2021/07/07 09:08:41;;;;;;;0.47;0.47;;;28.30;75.60;;;;;;5069457;28;20618;-85
2021/07/07 09:11:31;;;;;;;0.88;0.17;;;31.70;67.50;;;;;;5069147;28;20081;-86
2021/07/07 09:14:11;;;;;;;0.00;0.00;;;33.90;61.70;;;;;;5067746;28;20028;-85
2021/07/07 09:17:02;;;;;;;0.10;0.10;;;30.70;67.90;;;;;;5069052;28;20029;-85
2021/07/07 09:19:29;;;;;;;0.00;0.00;;;30.80;66.00;;;;;;5069131;28;20393;-86
2021/07/07 09:22:07;;;;;;;3.50;0.85;;;34.20;58.90;;;;;;5067097;28;20047;-85
2021/07/07 09:24:34;;;;;;;0.00;0.00;;;32.80;54.90;;;;;;5068736;28;20074;-85
2021/07/07 09:27:03;;;;;;;0.20;0.20;;;32.00;57.70;;;;;;5068577;28;20097;-86
2021/07/07 09:29:52;;;;;;;1.40;0.00;;;33.10;54.00;;;;;;5067359;28;20034;-86
2021/07/07 09:32:29;;;;;;;0.10;0.10;;;33.10;52.90;;;;;;5067245;28;20405;-86
2021/07/07 09:35:03;;;;;;;0.20;0.20;;;34.70;55.70;;;;;;5068358;28;20043;-86
2021/07/07 09:37:37;;;;;;;1.55;0.30;;;31.70;63.00;;;;;;5067323;28;20028;-86
2021/07/07 09:40:04;;;;;;;0.00;0.00;;;31.40;61.80;;;;;;5068689;28;20028;-86
2021/07/07 09:42:34;;;;;;;0.05;0.05;;;34.20;49.00;;;;;;5068624;28;20056;-86
2021/07/07 09:45:00;;;;;;;0.28;0.08;;;34.80;44.10;;;;;;5066975;28;20028;-86
2021/07/07 09:47:28;;;;;;;0.00;0.00;;;36.20;45.70;;;;;;5068765;28;20028;-86
2021/07/07 09:49:54;;;;;;;0.00;0.00;;;37.00;43.20;;;;;;5068308;28;20021;-86
2021/07/07 09:52:26;;;;;;;0.03;0.03;;;35.40;37.90;;;;;;5068753;28;20052;-86
2021/07/07 09:54:52;;;;;;;0.25;0.20;;;34.80;36.10;;;;;;5068547;28;20024;-86
2021/07/07 09:57:19;;;;;;;2.28;0.75;;;32.70;39.90;;;;;;5068707;28;20020;-86
2021/07/07 09:59:46;;;;;;;0.08;0.08;;;32.10;51.70;;;;;;5068845;28;20032;-86
2021/07/07 10:02:12;;;;;;;0.10;0.10;;;29.60;55.60;;;;;;5068468;28;20028;-86
2021/07/07 10:04:41;;;;;;;0.17;0.17;;;27.60;56.60;;;;;;5067960;28;20086;-86
2021/07/07 10:07:08;;;;;;;0.20;0.15;;;26.30;60.90;;;;;;5068328;28;20124;-86
2021/07/07 10:09:37;;;;;;;0.03;0.03;;;28.60;56.50;;;;;;5068726;28;20028;-86
2021/07/07 10:12:03;;;;;;;0.30;0.30;;;28.90;57.70;;;;;;5068689;28;20486;-86
2021/07/07 10:14:30;;;;;;;0.00;0.00;;;33.20;49.90;;;;;;5065172;28;20020;-86
2021/07/07 10:16:55;;;;;;;0.00;0.00;;;29.70;49.10;;;;;;5048439;28;20025;-86
2021/07/07 10:19:22;;;;;;;1.08;0.35;;;32.30;49.50;;;;;;5048816;28;20452;-86
2021/07/07 10:21:48;;;;;;;0.00;0.00;;;30.20;50.40;;;;;;5048856;28;20086;-86
2021/07/07 10:24:18;;;;;;;0.00;0.00;;;27.50;58.10;;;;;;5066272;28;20025;-86
2021/07/07 10:26:45;;;;;;;1.17;0.32;;;25.00;68.10;;;;;;5068515;28;20077;-86
2021/07/07 10:29:14;;;;;;;0.00;0.00;;;24.60;66.70;;;;;;5068538;28;20017;-86
2021/07/07 10:32:00;;;;;;;0.00;0.00;;;24.70;65.70;;;;;;5068832;28;20028;-85
2021/07/07 10:34:30;;;;;;;0.00;0.00;;;24.50;69.70;;;;;;5068296;28;20029;-86
2021/07/07 10:36:57;;;;;;;0.00;0.00;;;24.20;69.30;;;;;;5068818;28;20497;-85
2021/07/07 10:39:23;;;;;;;0.00;0.00;;;24.60;67.80;;;;;;5068393;28;20460;-85
2021/07/07 10:41:58;;;;;;;0.47;0.35;;;24.50;67.60;;;;;;5066909;28;20033;-85
2021/07/07 10:44:24;;;;;;;0.00;0.00;;;24.10;68.80;;;;;;5068201;28;20710;-86
2021/07/07 10:47:05;;;;;;;0.00;0.00;;;24.60;69.70;;;;;;5068491;28;20025;-86
2021/07/07 10:49:38;;;;;;;0.00;0.00;;;25.60;81.60;;;;;;5066951;28;20039;-86
2021/07/07 10:52:06;;;;;;;0.00;0.00;;;32.10;54.90;;;;;;5068088;28;20032;-86
2021/07/07 10:54:34;;;;;;;0.00;0.00;;;33.20;49.00;;;;;;5068542;28;20091;-86
2021/07/07 10:57:02;;;;;;;0.10;0.10;;;32.50;44.70;;;;;;5068497;28;20036;-86
2021/07/07 10:59:44;;;;;;;0.25;0.10;;;33.00;44.70;;;;;;5068159;28;20028;-86
2021/07/07 11:02:17;;;;;;;0.43;0.25;;;32.20;44.80;;;;;;5067806;28;20033;-86
2021/07/07 11:04:44;;;;;;;0.00;0.00;;;29.30;47.10;;;;;;5068345;28;20032;-86
2021/07/07 11:07:33;;;;;;;0.00;0.00;;;27.40;54.40;;;;;;5068093;28;20492;-86
2021/07/07 11:10:05;;;;;;;0.00;0.00;;;26.20;56.70;;;;;;5068016;28;20040;-86
2021/07/07 11:12:40;;;;;;;6.45;0.10;;;25.90;57.80;;;;;;5068191;28;20108;-86
2021/07/07 11:15:22;;;;;;;0.20;0.20;;;25.70;59.30;;;;;;5060701;28;20041;-86
2021/07/07 11:17:52;;;;;;;0.20;0.20;;;25.50;61.30;;;;;;5051636;28;20498;-85
2021/07/07 11:20:20;;;;;;;0.40;0.10;;;26.00;57.40;;;;;;5051468;28;20525;-86
2021/07/07 11:23:01;;;;;;;0.10;0.10;;;28.20;54.30;;;;;;5058262;28;20028;-86
2021/07/07 11:25:28;;;;;;;0.00;0.00;;;26.90;54.30;;;;;;5071479;28;20056;-86
2021/07/07 11:27:54;;;;;;;0.00;0.00;;;28.30;53.40;;;;;;5070302;28;20489;-86
2021/07/07 11:30:22;;;;;;;1.35;0.52;;;28.40;53.10;;;;;;5071396;28;20077;-86
2021/07/07 11:32:50;;;;;;;0.20;0.20;;;25.80;55.90;;;;;;5071247;28;20038;-86
2021/07/07 11:35:36;;;;;;;0.35;0.30;;;28.50;54.20;;;;;;5070888;28;20040;-86
2021/07/07 11:38:04;;;;;;;0.30;0.00;;;26.80;56.50;;;;;;5071513;28;20021;-86
2021/07/07 11:40:32;;;;;;;0.10;0.10;;;26.20;57.30;;;;;;5070502;28;20432;-86
2021/07/07 11:43:06;;;;;;;0.00;0.00;;;25.10;61.90;;;;;;5070998;28;20076;-86
2021/07/07 11:45:54;;;;;;;0.00;0.00;;;25.30;62.90;;;;;;5070770;28;20114;-86
2021/07/07 11:48:47;;;;;;;0.38;0.38;;;25.50;62.50;;;;;;5070749;28;20067;-86
2021/07/07 11:51:20;;;;;;;0.28;0.10;;;24.60;64.40;;;;;;5070765;28;20457;-86
2021/07/07 11:53:48;;;;;;;0.25;0.00;;;24.30;65.10;;;;;;5070854;28;20119;-86
2021/07/07 11:56:16;;;;;;;0.38;0.30;;;24.90;68.00;;;;;;5070627;28;20024;-86
2021/07/07 11:58:46;;;;;;;0.00;0.00;;;24.70;67.90;;;;;;5070854;28;20036;-86
2021/07/07 12:01:21;;;;;;;0.20;0.15;;;24.70;69.40;;;;;;5070752;28;20075;-86
2021/07/07 12:04:12;;;;;;;0.13;0.13;;;24.50;68.80;;;;;;5070655;28;20028;-86
2021/07/07 12:06:40;;;;;;;1.30;0.35;;;24.40;69.90;;;;;;5070153;28;20020;-86
2021/07/07 12:09:16;;;;;;;0.45;0.32;;;24.00;67.90;;;;;;5070656;28;20492;-86
2021/07/07 12:11:56;;;;;;;1.58;0.20;;;24.10;70.90;;;;;;5070279;28;20512;-86
2021/07/07 12:14:24;;;;;;;0.00;0.00;;;24.10;72.50;;;;;;5068821;28;20025;-85
2021/07/07 12:16:50;;;;;;;0.00;0.00;;;24.50;71.40;;;;;;5050320;28;20033;-86
2021/07/07 12:19:17;;;;;;;0.00;0.00;;;24.60;70.10;;;;;;5049168;28;20028;-86
2021/07/07 12:21:53;;;;;;;0.00;0.00;;;24.40;69.90;;;;;;5050449;28;20029;-86
2021/07/07 12:24:26;;;;;;;0.43;0.32;;;24.30;68.70;;;;;;5050208;28;20108;-86
2021/07/07 12:27:23;;;;;;;0.88;0.25;;;24.30;69.70;;;;;;5050067;28;20158;-85
2021/07/07 12:29:49;;;;;;;0.00;0.00;;;24.50;68.70;;;;;;5053448;28;20037;-86
2021/07/07 12:32:26;;;;;;;0.60;0.43;;;24.60;69.00;;;;;;5050475;28;20104;-86
2021/07/07 12:34:54;;;;;;;0.00;0.00;;;24.80;70.90;;;;;;5048662;28;20089;-86
2021/07/07 12:37:20;;;;;;;0.00;0.00;;;24.30;70.00;;;;;;5050491;28;20025;-85
2021/07/07 12:40:03;;;;;;;0.20;0.20;;;24.30;71.30;;;;;;5050060;28;20060;-86
2021/07/07 12:42:37;;;;;;;0.00;0.00;;;24.50;70.80;;;;;;5049849;28;20164;-86
2021/07/07 12:45:10;;;;;;;3.97;1.13;;;24.30;69.20;;;;;;5048620;28;20124;-86
2021/07/07 12:47:36;;;;;;;0.00;0.00;;;23.70;84.80;;;;;;5049715;28;20033;-86
2021/07/07 12:50:16;;;;;;;0.05;0.05;;;24.00;71.30;;;;;;5050203;28;20033;-86
2021/07/07 12:52:46;;;;;;;4.93;0.77;;;23.90;71.80;;;;;;5049692;28;20132;-85
2021/07/07 12:55:19;;;;;;;0.10;0.10;;;23.50;71.40;;;;;;5050159;28;20043;-86